sensor_id;sensor_type;location;lat;lon;timestamp;P1;durP1;ratioP1;P2;durP2;ratioP2
10882;SDS011;5494;51.796;10.952;2023-05-10T00:01:34;4.10;;;3.70;;
10882;SDS011;5494;51.796;10.952;2023-05-10T00:04:02;4.20;;;3.47;;
10882;SDS011;5494;51.796;10.952;2023-05-10T00:06:32;5.30;;;3.60;;
10882;SDS011;5494;51.796;10.952;2023-05-10T00:09:00;5.27;;;3.83;;
10882;SDS011;5494;51.796;10.952;2023-05-10T00:11:28;6.80;;;3.70;;
10882;SDS011;5494;51.796;10.952;2023-05-10T00:13:56;4.17;;;3.27;;
10882;SDS011;5494;51.796;10.952;2023-05-10T00:16:24;5.10;;;3.90;;
10882;SDS011;5494;51.796;10.952;2023-05-10T00:18:52;5.13;;;3.43;;
10882;SDS011;5494;51.796;10.952;2023-05-10T00:21:20;4.73;;;3.60;;
10882;SDS011;5494;51.796;10.952;2023-05-10T00:23:49;3.97;;;3.50;;
10882;SDS011;5494;51.796;10.952;2023-05-10T00:26:17;6.10;;;3.60;;
10882;SDS011;5494;51.796;10.952;2023-05-10T00:28:50;5.37;;;3.17;;
10882;SDS011;5494;51.796;10.952;2023-05-10T00:31:18;5.77;;;4.10;;
10882;SDS011;5494;51.796;10.952;2023-05-10T00:33:46;5.17;;;3.70;;
10882;SDS011;5494;51.796;10.952;2023-05-10T00:36:14;4.00;;;3.50;;
10882;SDS011;5494;51.796;10.952;2023-05-10T00:38:42;5.73;;;3.60;;
10882;SDS011;5494;51.796;10.952;2023-05-10T00:41:12;6.03;;;3.30;;
10882;SDS011;5494;51.796;10.952;2023-05-10T00:43:40;3.90;;;3.53;;
10882;SDS011;5494;51.796;10.952;2023-05-10T00:46:08;5.27;;;3.50;;
10882;SDS011;5494;51.796;10.952;2023-05-10T00:48:37;5.27;;;3.40;;
10882;SDS011;5494;51.796;10.952;2023-05-10T00:51:05;4.57;;;3.73;;
10882;SDS011;5494;51.796;10.952;2023-05-10T00:53:33;4.10;;;3.33;;
10882;SDS011;5494;51.796;10.952;2023-05-10T00:56:03;5.93;;;3.60;;
10882;SDS011;5494;51.796;10.952;2023-05-10T00:58:33;5.77;;;3.00;;
10882;SDS011;5494;51.796;10.952;2023-05-10T01:01:01;4.80;;;3.10;;
10882;SDS011;5494;51.796;10.952;2023-05-10T01:03:29;5.73;;;4.00;;
10882;SDS011;5494;51.796;10.952;2023-05-10T01:05:58;6.03;;;3.43;;
10882;SDS011;5494;51.796;10.952;2023-05-10T01:08:26;5.80;;;3.60;;
10882;SDS011;5494;51.796;10.952;2023-05-10T01:10:55;5.23;;;3.37;;
10882;SDS011;5494;51.796;10.952;2023-05-10T01:13:32;4.00;;;3.27;;
10882;SDS011;5494;51.796;10.952;2023-05-10T01:16:06;4.30;;;3.47;;
10882;SDS011;5494;51.796;10.952;2023-05-10T01:18:35;6.10;;;3.40;;
10882;SDS011;5494;51.796;10.952;2023-05-10T01:21:10;5.47;;;3.37;;
10882;SDS011;5494;51.796;10.952;2023-05-10T01:23:57;3.87;;;3.47;;
10882;SDS011;5494;51.796;10.952;2023-05-10T01:30:14;4.97;;;3.83;;
10882;SDS011;5494;51.796;10.952;2023-05-10T01:33:16;4.30;;;3.60;;
10882;SDS011;5494;51.796;10.952;2023-05-10T01:35:51;3.57;;;3.27;;
10882;SDS011;5494;51.796;10.952;2023-05-10T01:38:27;5.37;;;3.20;;
10882;SDS011;5494;51.796;10.952;2023-05-10T01:41:13;4.33;;;3.73;;
10882;SDS011;5494;51.796;10.952;2023-05-10T01:43:49;5.37;;;3.37;;
10882;SDS011;5494;51.796;10.952;2023-05-10T01:46:31;4.53;;;3.40;;
10882;SDS011;5494;51.796;10.952;2023-05-10T01:49:08;5.00;;;3.80;;
10882;SDS011;5494;51.796;10.952;2023-05-10T01:51:41;3.53;;;2.97;;
10882;SDS011;5494;51.796;10.952;2023-05-10T01:54:19;4.40;;;3.07;;
10882;SDS011;5494;51.796;10.952;2023-05-10T01:56:52;4.10;;;3.70;;
10882;SDS011;5494;51.796;10.952;2023-05-10T01:59:28;3.53;;;3.10;;
10882;SDS011;5494;51.796;10.952;2023-05-10T02:02:05;6.23;;;3.30;;
10882;SDS011;5494;51.796;10.952;2023-05-10T02:04:39;3.87;;;3.43;;
10882;SDS011;5494;51.796;10.952;2023-05-10T02:07:09;4.60;;;3.40;;
10882;SDS011;5494;51.796;10.952;2023-05-10T02:09:39;5.83;;;3.70;;
10882;SDS011;5494;51.796;10.952;2023-05-10T02:12:13;4.77;;;3.20;;
10882;SDS011;5494;51.796;10.952;2023-05-10T02:14:43;4.00;;;3.37;;
10882;SDS011;5494;51.796;10.952;2023-05-10T02:17:14;5.40;;;3.70;;
10882;SDS011;5494;51.796;10.952;2023-05-10T02:19:45;5.60;;;3.67;;
10882;SDS011;5494;51.796;10.952;2023-05-10T02:22:15;3.70;;;3.07;;
10882;SDS011;5494;51.796;10.952;2023-05-10T02:24:46;3.47;;;3.17;;
10882;SDS011;5494;51.796;10.952;2023-05-10T02:27:16;4.97;;;3.20;;
10882;SDS011;5494;51.796;10.952;2023-05-10T02:29:47;4.20;;;3.43;;
10882;SDS011;5494;51.796;10.952;2023-05-10T02:32:17;3.53;;;3.13;;
10882;SDS011;5494;51.796;10.952;2023-05-10T02:34:47;5.00;;;3.43;;
10882;SDS011;5494;51.796;10.952;2023-05-10T02:37:18;4.80;;;3.57;;
10882;SDS011;5494;51.796;10.952;2023-05-10T02:39:47;3.97;;;3.57;;
10882;SDS011;5494;51.796;10.952;2023-05-10T02:42:18;4.73;;;2.97;;
10882;SDS011;5494;51.796;10.952;2023-05-10T02:44:57;4.07;;;3.17;;
10882;SDS011;5494;51.796;10.952;2023-05-10T02:47:29;3.67;;;3.37;;
10882;SDS011;5494;51.796;10.952;2023-05-10T02:49:59;4.23;;;3.40;;
10882;SDS011;5494;51.796;10.952;2023-05-10T02:52:29;4.40;;;3.30;;
10882;SDS011;5494;51.796;10.952;2023-05-10T02:55:06;6.27;;;3.40;;
10882;SDS011;5494;51.796;10.952;2023-05-10T02:57:40;3.50;;;3.20;;
10882;SDS011;5494;51.796;10.952;2023-05-10T03:00:15;4.43;;;3.33;;
10882;SDS011;5494;51.796;10.952;2023-05-10T03:02:44;4.80;;;3.30;;
10882;SDS011;5494;51.796;10.952;2023-05-10T03:05:14;4.30;;;3.50;;
10882;SDS011;5494;51.796;10.952;2023-05-10T03:07:42;6.50;;;3.27;;
10882;SDS011;5494;51.796;10.952;2023-05-10T03:10:10;3.53;;;3.23;;
10882;SDS011;5494;51.796;10.952;2023-05-10T03:12:47;4.10;;;3.70;;
10882;SDS011;5494;51.796;10.952;2023-05-10T03:15:31;4.87;;;3.93;;
10882;SDS011;5494;51.796;10.952;2023-05-10T03:18:10;6.37;;;4.13;;
10882;SDS011;5494;51.796;10.952;2023-05-10T03:20:47;8.63;;;3.40;;
10882;SDS011;5494;51.796;10.952;2023-05-10T03:23:21;5.13;;;4.07;;
10882;SDS011;5494;51.796;10.952;2023-05-10T03:25:54;4.60;;;3.73;;
10882;SDS011;5494;51.796;10.952;2023-05-10T03:28:25;7.20;;;3.43;;
10882;SDS011;5494;51.796;10.952;2023-05-10T03:30:54;4.30;;;3.90;;
10882;SDS011;5494;51.796;10.952;2023-05-10T03:33:24;3.77;;;3.33;;
10882;SDS011;5494;51.796;10.952;2023-05-10T03:35:53;3.83;;;3.43;;
10882;SDS011;5494;51.796;10.952;2023-05-10T03:38:21;4.60;;;3.40;;
10882;SDS011;5494;51.796;10.952;2023-05-10T03:40:49;4.50;;;3.73;;
10882;SDS011;5494;51.796;10.952;2023-05-10T03:43:17;4.50;;;3.80;;
10882;SDS011;5494;51.796;10.952;2023-05-10T03:45:45;4.50;;;3.27;;
10882;SDS011;5494;51.796;10.952;2023-05-10T03:48:13;3.87;;;3.10;;
10882;SDS011;5494;51.796;10.952;2023-05-10T03:50:41;3.93;;;3.40;;
10882;SDS011;5494;51.796;10.952;2023-05-10T03:53:11;4.40;;;3.10;;
10882;SDS011;5494;51.796;10.952;2023-05-10T03:55:39;3.80;;;3.20;;
10882;SDS011;5494;51.796;10.952;2023-05-10T03:58:10;8.03;;;3.53;;
10882;SDS011;5494;51.796;10.952;2023-05-10T04:00:38;5.80;;;3.67;;
10882;SDS011;5494;51.796;10.952;2023-05-10T04:03:10;4.80;;;4.03;;
10882;SDS011;5494;51.796;10.952;2023-05-10T04:05:39;3.83;;;3.47;;
10882;SDS011;5494;51.796;10.952;2023-05-10T04:08:07;6.23;;;3.50;;
10882;SDS011;5494;51.796;10.952;2023-05-10T04:10:36;4.27;;;3.33;;
10882;SDS011;5494;51.796;10.952;2023-05-10T04:13:04;3.70;;;3.23;;
10882;SDS011;5494;51.796;10.952;2023-05-10T04:15:32;4.17;;;3.57;;
10882;SDS011;5494;51.796;10.952;2023-05-10T04:18:01;4.10;;;3.30;;
10882;SDS011;5494;51.796;10.952;2023-05-10T04:20:32;4.37;;;3.30;;
10882;SDS011;5494;51.796;10.952;2023-05-10T04:23:00;4.60;;;3.40;;
10882;SDS011;5494;51.796;10.952;2023-05-10T04:25:28;3.90;;;3.13;;
10882;SDS011;5494;51.796;10.952;2023-05-10T04:27:57;7.43;;;3.20;;
10882;SDS011;5494;51.796;10.952;2023-05-10T04:30:26;6.37;;;4.67;;
10882;SDS011;5494;51.796;10.952;2023-05-10T04:32:55;4.57;;;3.40;;
10882;SDS011;5494;51.796;10.952;2023-05-10T04:35:25;4.33;;;3.70;;
10882;SDS011;5494;51.796;10.952;2023-05-10T04:37:54;4.93;;;3.20;;
10882;SDS011;5494;51.796;10.952;2023-05-10T04:40:22;4.20;;;3.80;;
10882;SDS011;5494;51.796;10.952;2023-05-10T04:42:50;3.37;;;3.03;;
10882;SDS011;5494;51.796;10.952;2023-05-10T04:45:19;5.07;;;3.80;;
10882;SDS011;5494;51.796;10.952;2023-05-10T04:47:48;5.83;;;3.50;;
10882;SDS011;5494;51.796;10.952;2023-05-10T04:50:16;4.43;;;3.50;;
10882;SDS011;5494;51.796;10.952;2023-05-10T04:52:44;4.90;;;3.20;;
10882;SDS011;5494;51.796;10.952;2023-05-10T04:55:12;4.13;;;3.73;;
10882;SDS011;5494;51.796;10.952;2023-05-10T04:57:40;4.00;;;3.40;;
10882;SDS011;5494;51.796;10.952;2023-05-10T05:00:09;5.13;;;3.43;;
10882;SDS011;5494;51.796;10.952;2023-05-10T05:02:41;4.03;;;3.63;;
10882;SDS011;5494;51.796;10.952;2023-05-10T05:05:11;3.73;;;3.40;;
10882;SDS011;5494;51.796;10.952;2023-05-10T05:07:39;3.73;;;3.33;;
10882;SDS011;5494;51.796;10.952;2023-05-10T05:10:07;3.77;;;3.37;;
10882;SDS011;5494;51.796;10.952;2023-05-10T05:12:36;4.33;;;3.47;;
10882;SDS011;5494;51.796;10.952;2023-05-10T05:15:04;3.40;;;3.10;;
10882;SDS011;5494;51.796;10.952;2023-05-10T05:17:35;3.50;;;3.00;;
10882;SDS011;5494;51.796;10.952;2023-05-10T05:20:05;4.43;;;3.70;;
10882;SDS011;5494;51.796;10.952;2023-05-10T05:22:35;4.93;;;3.67;;
10882;SDS011;5494;51.796;10.952;2023-05-10T05:25:04;5.60;;;3.50;;
10882;SDS011;5494;51.796;10.952;2023-05-10T05:27:33;5.50;;;3.40;;
10882;SDS011;5494;51.796;10.952;2023-05-10T05:30:02;7.10;;;3.83;;
10882;SDS011;5494;51.796;10.952;2023-05-10T05:32:30;4.23;;;3.83;;
10882;SDS011;5494;51.796;10.952;2023-05-10T05:34:59;5.63;;;3.60;;
10882;SDS011;5494;51.796;10.952;2023-05-10T05:37:28;4.53;;;3.37;;
10882;SDS011;5494;51.796;10.952;2023-05-10T05:39:56;6.00;;;3.40;;
10882;SDS011;5494;51.796;10.952;2023-05-10T05:42:24;4.57;;;3.27;;
10882;SDS011;5494;51.796;10.952;2023-05-10T05:44:52;4.37;;;3.77;;
10882;SDS011;5494;51.796;10.952;2023-05-10T05:47:20;5.47;;;3.40;;
10882;SDS011;5494;51.796;10.952;2023-05-10T05:49:48;3.90;;;3.60;;
10882;SDS011;5494;51.796;10.952;2023-05-10T05:52:16;3.93;;;3.47;;
10882;SDS011;5494;51.796;10.952;2023-05-10T05:54:45;5.57;;;3.70;;
10882;SDS011;5494;51.796;10.952;2023-05-10T05:57:13;4.37;;;3.10;;
10882;SDS011;5494;51.796;10.952;2023-05-10T05:59:41;3.70;;;3.30;;
10882;SDS011;5494;51.796;10.952;2023-05-10T06:02:10;3.73;;;3.27;;
10882;SDS011;5494;51.796;10.952;2023-05-10T06:04:38;4.97;;;3.50;;
10882;SDS011;5494;51.796;10.952;2023-05-10T06:07:09;4.67;;;3.60;;
10882;SDS011;5494;51.796;10.952;2023-05-10T06:09:37;3.97;;;3.10;;
10882;SDS011;5494;51.796;10.952;2023-05-10T06:12:07;3.70;;;3.30;;
10882;SDS011;5494;51.796;10.952;2023-05-10T06:14:35;3.63;;;2.87;;
10882;SDS011;5494;51.796;10.952;2023-05-10T06:17:03;4.00;;;3.60;;
10882;SDS011;5494;51.796;10.952;2023-05-10T06:19:31;4.80;;;3.53;;
10882;SDS011;5494;51.796;10.952;2023-05-10T06:21:59;4.90;;;3.77;;
10882;SDS011;5494;51.796;10.952;2023-05-10T06:24:27;6.83;;;3.47;;
10882;SDS011;5494;51.796;10.952;2023-05-10T06:26:55;3.80;;;3.37;;
10882;SDS011;5494;51.796;10.952;2023-05-10T06:29:27;3.63;;;3.27;;
10882;SDS011;5494;51.796;10.952;2023-05-10T06:31:55;6.03;;;3.73;;
10882;SDS011;5494;51.796;10.952;2023-05-10T06:34:24;3.43;;;3.13;;
10882;SDS011;5494;51.796;10.952;2023-05-10T06:36:52;5.40;;;3.50;;
10882;SDS011;5494;51.796;10.952;2023-05-10T06:39:20;4.33;;;3.90;;
10882;SDS011;5494;51.796;10.952;2023-05-10T06:41:48;4.20;;;3.77;;
10882;SDS011;5494;51.796;10.952;2023-05-10T06:44:18;4.00;;;3.60;;
10882;SDS011;5494;51.796;10.952;2023-05-10T06:46:47;7.63;;;3.90;;
10882;SDS011;5494;51.796;10.952;2023-05-10T06:49:16;4.20;;;3.63;;
10882;SDS011;5494;51.796;10.952;2023-05-10T06:51:44;5.00;;;4.00;;
10882;SDS011;5494;51.796;10.952;2023-05-10T06:54:12;4.43;;;4.00;;
10882;SDS011;5494;51.796;10.952;2023-05-10T06:56:40;5.43;;;4.10;;
10882;SDS011;5494;51.796;10.952;2023-05-10T06:59:08;5.00;;;4.40;;
10882;SDS011;5494;51.796;10.952;2023-05-10T07:01:36;4.10;;;3.40;;
10882;SDS011;5494;51.796;10.952;2023-05-10T07:04:06;5.90;;;3.93;;
10882;SDS011;5494;51.796;10.952;2023-05-10T07:06:34;5.17;;;3.83;;
10882;SDS011;5494;51.796;10.952;2023-05-10T07:09:02;4.03;;;3.63;;
10882;SDS011;5494;51.796;10.952;2023-05-10T07:11:30;5.77;;;4.03;;
10882;SDS011;5494;51.796;10.952;2023-05-10T07:13:58;5.33;;;3.57;;
10882;SDS011;5494;51.796;10.952;2023-05-10T07:16:26;4.80;;;3.43;;
10882;SDS011;5494;51.796;10.952;2023-05-10T07:18:55;4.33;;;3.93;;
10882;SDS011;5494;51.796;10.952;2023-05-10T07:21:24;4.97;;;4.00;;
10882;SDS011;5494;51.796;10.952;2023-05-10T07:23:54;4.27;;;3.70;;
10882;SDS011;5494;51.796;10.952;2023-05-10T07:26:22;5.57;;;3.80;;
10882;SDS011;5494;51.796;10.952;2023-05-10T07:28:51;4.10;;;3.70;;
10882;SDS011;5494;51.796;10.952;2023-05-10T07:31:19;4.60;;;4.20;;
10882;SDS011;5494;51.796;10.952;2023-05-10T07:33:47;4.73;;;4.17;;
10882;SDS011;5494;51.796;10.952;2023-05-10T07:36:15;6.47;;;4.27;;
10882;SDS011;5494;51.796;10.952;2023-05-10T07:38:44;6.60;;;4.97;;
10882;SDS011;5494;51.796;10.952;2023-05-10T07:41:12;4.43;;;3.90;;
10882;SDS011;5494;51.796;10.952;2023-05-10T07:43:40;6.10;;;4.30;;
10882;SDS011;5494;51.796;10.952;2023-05-10T07:46:08;8.93;;;3.90;;
10882;SDS011;5494;51.796;10.952;2023-05-10T07:48:37;6.60;;;4.87;;
10882;SDS011;5494;51.796;10.952;2023-05-10T07:51:05;6.00;;;5.10;;
10882;SDS011;5494;51.796;10.952;2023-05-10T07:53:35;5.17;;;4.37;;
10882;SDS011;5494;51.796;10.952;2023-05-10T07:58:57;5.50;;;5.00;;
10882;SDS011;5494;51.796;10.952;2023-05-10T08:01:29;6.10;;;4.70;;
10882;SDS011;5494;51.796;10.952;2023-05-10T08:03:59;5.87;;;4.70;;
10882;SDS011;5494;51.796;10.952;2023-05-10T08:06:28;5.13;;;4.63;;
10882;SDS011;5494;51.796;10.952;2023-05-10T08:08:56;5.63;;;5.10;;
10882;SDS011;5494;51.796;10.952;2023-05-10T08:11:25;5.63;;;5.03;;
10882;SDS011;5494;51.796;10.952;2023-05-10T08:13:53;5.20;;;4.70;;
10882;SDS011;5494;51.796;10.952;2023-05-10T08:16:23;5.57;;;4.80;;
10882;SDS011;5494;51.796;10.952;2023-05-10T08:18:51;5.60;;;5.03;;
10882;SDS011;5494;51.796;10.952;2023-05-10T08:21:21;5.53;;;5.03;;
10882;SDS011;5494;51.796;10.952;2023-05-10T08:23:49;5.17;;;4.67;;
10882;SDS011;5494;51.796;10.952;2023-05-10T08:26:17;5.63;;;4.97;;
10882;SDS011;5494;51.796;10.952;2023-05-10T08:28:47;5.70;;;4.50;;
10882;SDS011;5494;51.796;10.952;2023-05-10T08:31:15;6.30;;;4.80;;
10882;SDS011;5494;51.796;10.952;2023-05-10T08:33:44;5.20;;;4.70;;
10882;SDS011;5494;51.796;10.952;2023-05-10T08:36:12;4.87;;;4.23;;
10882;SDS011;5494;51.796;10.952;2023-05-10T08:38:45;4.87;;;4.47;;
10882;SDS011;5494;51.796;10.952;2023-05-10T08:41:15;5.30;;;4.77;;
10882;SDS011;5494;51.796;10.952;2023-05-10T08:43:45;4.97;;;4.57;;
10882;SDS011;5494;51.796;10.952;2023-05-10T08:46:14;4.80;;;4.30;;
10882;SDS011;5494;51.796;10.952;2023-05-10T08:48:46;5.30;;;4.60;;
10882;SDS011;5494;51.796;10.952;2023-05-10T08:51:18;4.90;;;4.40;;
10882;SDS011;5494;51.796;10.952;2023-05-10T08:53:52;5.43;;;4.23;;
10882;SDS011;5494;51.796;10.952;2023-05-10T08:56:21;7.40;;;4.77;;
10882;SDS011;5494;51.796;10.952;2023-05-10T08:58:50;5.10;;;4.60;;
10882;SDS011;5494;51.796;10.952;2023-05-10T09:01:18;5.17;;;4.67;;
10882;SDS011;5494;51.796;10.952;2023-05-10T09:03:49;4.33;;;3.93;;
10882;SDS011;5494;51.796;10.952;2023-05-10T09:06:18;4.37;;;3.97;;
10882;SDS011;5494;51.796;10.952;2023-05-10T09:08:47;5.43;;;4.13;;
10882;SDS011;5494;51.796;10.952;2023-05-10T09:11:15;5.20;;;4.20;;
10882;SDS011;5494;51.796;10.952;2023-05-10T09:13:44;4.20;;;3.90;;
10882;SDS011;5494;51.796;10.952;2023-05-10T09:16:15;4.83;;;3.73;;
10882;SDS011;5494;51.796;10.952;2023-05-10T09:18:47;5.10;;;3.40;;
10882;SDS011;5494;51.796;10.952;2023-05-10T09:21:16;5.27;;;3.70;;
10882;SDS011;5494;51.796;10.952;2023-05-10T09:23:47;3.63;;;3.33;;
10882;SDS011;5494;51.796;10.952;2023-05-10T09:26:16;3.60;;;2.67;;
10882;SDS011;5494;51.796;10.952;2023-05-10T09:28:52;3.00;;;2.70;;
10882;SDS011;5494;51.796;10.952;2023-05-10T09:31:21;4.83;;;3.13;;
10882;SDS011;5494;51.796;10.952;2023-05-10T09:33:52;3.20;;;2.90;;
10882;SDS011;5494;51.796;10.952;2023-05-10T09:36:20;2.77;;;2.57;;
10882;SDS011;5494;51.796;10.952;2023-05-10T09:38:49;2.80;;;2.60;;
10882;SDS011;5494;51.796;10.952;2023-05-10T09:41:19;3.33;;;2.97;;
10882;SDS011;5494;51.796;10.952;2023-05-10T09:43:49;2.80;;;2.60;;
10882;SDS011;5494;51.796;10.952;2023-05-10T09:46:17;2.87;;;2.67;;
10882;SDS011;5494;51.796;10.952;2023-05-10T09:48:46;3.60;;;3.30;;
10882;SDS011;5494;51.796;10.952;2023-05-10T09:51:20;3.20;;;2.90;;
10882;SDS011;5494;51.796;10.952;2023-05-10T09:53:52;2.83;;;2.63;;
10882;SDS011;5494;51.796;10.952;2023-05-10T09:56:37;3.57;;;3.27;;
10882;SDS011;5494;51.796;10.952;2023-05-10T09:59:08;3.70;;;2.57;;
10882;SDS011;5494;51.796;10.952;2023-05-10T10:01:39;3.10;;;2.77;;
10882;SDS011;5494;51.796;10.952;2023-05-10T10:04:09;3.03;;;2.50;;
10882;SDS011;5494;51.796;10.952;2023-05-10T10:06:39;2.97;;;2.43;;
10882;SDS011;5494;51.796;10.952;2023-05-10T10:09:07;2.80;;;2.50;;
10882;SDS011;5494;51.796;10.952;2023-05-10T10:11:37;3.43;;;2.50;;
10882;SDS011;5494;51.796;10.952;2023-05-10T10:14:07;4.00;;;2.80;;
10882;SDS011;5494;51.796;10.952;2023-05-10T10:16:35;3.97;;;2.67;;
10882;SDS011;5494;51.796;10.952;2023-05-10T10:19:17;3.67;;;2.57;;
10882;SDS011;5494;51.796;10.952;2023-05-10T10:21:48;3.47;;;3.17;;
10882;SDS011;5494;51.796;10.952;2023-05-10T10:24:17;3.03;;;2.67;;
10882;SDS011;5494;51.796;10.952;2023-05-10T10:26:45;3.97;;;2.33;;
10882;SDS011;5494;51.796;10.952;2023-05-10T10:29:20;5.00;;;2.57;;
10882;SDS011;5494;51.796;10.952;2023-05-10T10:32:02;5.03;;;2.73;;
10882;SDS011;5494;51.796;10.952;2023-05-10T10:34:39;3.80;;;2.80;;
10882;SDS011;5494;51.796;10.952;2023-05-10T10:37:09;3.50;;;3.20;;
10882;SDS011;5494;51.796;10.952;2023-05-10T10:39:40;5.53;;;3.27;;
10882;SDS011;5494;51.796;10.952;2023-05-10T10:42:08;5.10;;;4.37;;
10882;SDS011;5494;51.796;10.952;2023-05-10T10:44:36;5.13;;;4.40;;
10882;SDS011;5494;51.796;10.952;2023-05-10T10:47:06;5.20;;;4.27;;
10882;SDS011;5494;51.796;10.952;2023-05-10T10:50:02;5.77;;;4.20;;
10882;SDS011;5494;51.796;10.952;2023-05-10T10:52:33;4.40;;;4.00;;
10882;SDS011;5494;51.796;10.952;2023-05-10T10:55:03;4.90;;;4.40;;
10882;SDS011;5494;51.796;10.952;2023-05-10T10:57:42;5.27;;;4.47;;
10882;SDS011;5494;51.796;10.952;2023-05-10T11:00:26;5.13;;;4.30;;
10882;SDS011;5494;51.796;10.952;2023-05-10T11:02:58;5.30;;;4.63;;
10882;SDS011;5494;51.796;10.952;2023-05-10T11:08:11;5.40;;;4.90;;
10882;SDS011;5494;51.796;10.952;2023-05-10T11:10:52;5.50;;;4.87;;
10882;SDS011;5494;51.796;10.952;2023-05-10T11:13:31;5.33;;;4.83;;
10882;SDS011;5494;51.796;10.952;2023-05-10T11:16:14;3.23;;;2.70;;
10882;SDS011;5494;51.796;10.952;2023-05-10T11:18:56;2.77;;;2.37;;
10882;SDS011;5494;51.796;10.952;2023-05-10T11:21:29;4.53;;;3.30;;
10882;SDS011;5494;51.796;10.952;2023-05-10T11:23:59;3.23;;;2.30;;
10882;SDS011;5494;51.796;10.952;2023-05-10T11:26:33;3.37;;;1.97;;
10882;SDS011;5494;51.796;10.952;2023-05-10T11:29:02;2.33;;;2.13;;
10882;SDS011;5494;51.796;10.952;2023-05-10T11:31:31;2.80;;;2.20;;
10882;SDS011;5494;51.796;10.952;2023-05-10T11:34:00;5.27;;;2.80;;
10882;SDS011;5494;51.796;10.952;2023-05-10T11:36:29;2.10;;;1.70;;
10882;SDS011;5494;51.796;10.952;2023-05-10T11:39:02;1.90;;;1.50;;
10882;SDS011;5494;51.796;10.952;2023-05-10T11:41:32;2.10;;;1.60;;
10882;SDS011;5494;51.796;10.952;2023-05-10T11:44:00;2.53;;;1.70;;
10882;SDS011;5494;51.796;10.952;2023-05-10T11:46:29;2.20;;;1.73;;
10882;SDS011;5494;51.796;10.952;2023-05-10T11:48:58;3.43;;;1.70;;
10882;SDS011;5494;51.796;10.952;2023-05-10T11:51:33;2.53;;;2.07;;
10882;SDS011;5494;51.796;10.952;2023-05-10T11:54:06;3.20;;;2.33;;
10882;SDS011;5494;51.796;10.952;2023-05-10T11:56:36;2.27;;;1.93;;
10882;SDS011;5494;51.796;10.952;2023-05-10T11:59:04;2.60;;;2.40;;
10882;SDS011;5494;51.796;10.952;2023-05-10T12:01:32;3.33;;;1.80;;
10882;SDS011;5494;51.796;10.952;2023-05-10T12:04:01;1.90;;;1.60;;
10882;SDS011;5494;51.796;10.952;2023-05-10T12:06:31;1.70;;;1.60;;
10882;SDS011;5494;51.796;10.952;2023-05-10T12:09:06;2.00;;;1.60;;
10882;SDS011;5494;51.796;10.952;2023-05-10T12:11:36;2.40;;;1.80;;
10882;SDS011;5494;51.796;10.952;2023-05-10T12:14:09;1.90;;;1.60;;
10882;SDS011;5494;51.796;10.952;2023-05-10T12:16:37;1.60;;;1.50;;
10882;SDS011;5494;51.796;10.952;2023-05-10T12:19:06;1.63;;;1.53;;
10882;SDS011;5494;51.796;10.952;2023-05-10T12:21:34;1.43;;;1.33;;
10882;SDS011;5494;51.796;10.952;2023-05-10T12:24:03;1.90;;;1.67;;
10882;SDS011;5494;51.796;10.952;2023-05-10T12:26:34;1.60;;;1.50;;
10882;SDS011;5494;51.796;10.952;2023-05-10T12:29:12;1.50;;;1.40;;
10882;SDS011;5494;51.796;10.952;2023-05-10T12:31:49;1.07;;;1.07;;
10882;SDS011;5494;51.796;10.952;2023-05-10T12:34:30;1.40;;;1.30;;
10882;SDS011;5494;51.796;10.952;2023-05-10T12:37:01;2.50;;;1.67;;
10882;SDS011;5494;51.796;10.952;2023-05-10T12:39:39;2.03;;;1.70;;
10882;SDS011;5494;51.796;10.952;2023-05-10T12:42:10;3.17;;;1.70;;
10882;SDS011;5494;51.796;10.952;2023-05-10T12:44:39;1.80;;;1.30;;
10882;SDS011;5494;51.796;10.952;2023-05-10T12:47:07;0.90;;;0.87;;
10882;SDS011;5494;51.796;10.952;2023-05-10T12:49:38;0.50;;;0.50;;
10882;SDS011;5494;51.796;10.952;2023-05-10T12:52:06;0.77;;;0.77;;
10882;SDS011;5494;51.796;10.952;2023-05-10T12:54:34;0.60;;;0.60;;
10882;SDS011;5494;51.796;10.952;2023-05-10T12:57:02;2.03;;;0.90;;
10882;SDS011;5494;51.796;10.952;2023-05-10T12:59:31;1.53;;;1.20;;
10882;SDS011;5494;51.796;10.952;2023-05-10T13:02:02;1.70;;;1.50;;
10882;SDS011;5494;51.796;10.952;2023-05-10T13:04:30;1.47;;;1.30;;
10882;SDS011;5494;51.796;10.952;2023-05-10T13:07:01;1.63;;;1.40;;
10882;SDS011;5494;51.796;10.952;2023-05-10T13:09:29;2.40;;;2.20;;
10882;SDS011;5494;51.796;10.952;2023-05-10T13:12:03;4.73;;;2.27;;
10882;SDS011;5494;51.796;10.952;2023-05-10T13:14:36;2.80;;;1.50;;
10882;SDS011;5494;51.796;10.952;2023-05-10T13:17:08;2.37;;;1.77;;
10882;SDS011;5494;51.796;10.952;2023-05-10T13:19:37;2.03;;;1.70;;
10882;SDS011;5494;51.796;10.952;2023-05-10T13:22:04;1.10;;;1.00;;
10882;SDS011;5494;51.796;10.952;2023-05-10T13:24:32;3.60;;;2.40;;
10882;SDS011;5494;51.796;10.952;2023-05-10T13:27:00;4.73;;;3.57;;
10882;SDS011;5494;51.796;10.952;2023-05-10T13:29:28;2.67;;;2.20;;
10882;SDS011;5494;51.796;10.952;2023-05-10T13:31:58;2.23;;;1.80;;
10882;SDS011;5494;51.796;10.952;2023-05-10T13:34:26;3.50;;;1.50;;
10882;SDS011;5494;51.796;10.952;2023-05-10T13:36:54;1.87;;;1.40;;
10882;SDS011;5494;51.796;10.952;2023-05-10T13:39:23;2.30;;;1.70;;
10882;SDS011;5494;51.796;10.952;2023-05-10T13:41:51;1.17;;;1.07;;
10882;SDS011;5494;51.796;10.952;2023-05-10T13:44:20;3.47;;;1.00;;
10882;SDS011;5494;51.796;10.952;2023-05-10T13:46:48;2.63;;;1.30;;
10882;SDS011;5494;51.796;10.952;2023-05-10T13:49:18;4.40;;;1.67;;
10882;SDS011;5494;51.796;10.952;2023-05-10T13:51:46;1.70;;;1.20;;
10882;SDS011;5494;51.796;10.952;2023-05-10T13:54:14;2.03;;;1.70;;
10882;SDS011;5494;51.796;10.952;2023-05-10T13:56:43;1.47;;;1.37;;
10882;SDS011;5494;51.796;10.952;2023-05-10T13:59:11;2.30;;;1.20;;
10882;SDS011;5494;51.796;10.952;2023-05-10T14:01:40;4.00;;;1.33;;
10882;SDS011;5494;51.796;10.952;2023-05-10T14:04:08;2.30;;;1.10;;
10882;SDS011;5494;51.796;10.952;2023-05-10T14:06:38;1.10;;;1.00;;
10882;SDS011;5494;51.796;10.952;2023-05-10T14:09:06;1.77;;;1.00;;
10882;SDS011;5494;51.796;10.952;2023-05-10T14:11:35;1.63;;;0.80;;
10882;SDS011;5494;51.796;10.952;2023-05-10T14:14:03;2.33;;;0.87;;
10882;SDS011;5494;51.796;10.952;2023-05-10T14:16:31;1.10;;;0.93;;
10882;SDS011;5494;51.796;10.952;2023-05-10T14:18:59;1.50;;;1.40;;
10882;SDS011;5494;51.796;10.952;2023-05-10T14:21:27;1.30;;;1.20;;
10882;SDS011;5494;51.796;10.952;2023-05-10T14:23:58;1.57;;;0.93;;
10882;SDS011;5494;51.796;10.952;2023-05-10T14:26:27;0.70;;;0.70;;
10882;SDS011;5494;51.796;10.952;2023-05-10T14:28:58;0.70;;;0.70;;
10882;SDS011;5494;51.796;10.952;2023-05-10T14:31:26;1.07;;;0.80;;
10882;SDS011;5494;51.796;10.952;2023-05-10T14:33:56;0.70;;;0.70;;
10882;SDS011;5494;51.796;10.952;2023-05-10T14:36:25;1.63;;;0.80;;
10882;SDS011;5494;51.796;10.952;2023-05-10T14:38:53;0.97;;;0.97;;
10882;SDS011;5494;51.796;10.952;2023-05-10T14:41:22;2.03;;;0.73;;
10882;SDS011;5494;51.796;10.952;2023-05-10T14:43:50;2.00;;;0.80;;
10882;SDS011;5494;51.796;10.952;2023-05-10T14:46:18;0.70;;;0.70;;
10882;SDS011;5494;51.796;10.952;2023-05-10T14:48:47;0.80;;;0.80;;
10882;SDS011;5494;51.796;10.952;2023-05-10T14:51:15;1.20;;;0.83;;
10882;SDS011;5494;51.796;10.952;2023-05-10T14:53:43;0.93;;;0.87;;
10882;SDS011;5494;51.796;10.952;2023-05-10T14:56:11;1.60;;;0.70;;
10882;SDS011;5494;51.796;10.952;2023-05-10T14:58:40;1.97;;;1.23;;
10882;SDS011;5494;51.796;10.952;2023-05-10T15:01:08;1.57;;;1.10;;
10882;SDS011;5494;51.796;10.952;2023-05-10T15:03:36;3.53;;;1.30;;
10882;SDS011;5494;51.796;10.952;2023-05-10T15:06:05;1.20;;;1.10;;
10882;SDS011;5494;51.796;10.952;2023-05-10T15:08:35;1.70;;;1.23;;
10882;SDS011;5494;51.796;10.952;2023-05-10T15:11:03;1.23;;;1.13;;
10882;SDS011;5494;51.796;10.952;2023-05-10T15:13:31;1.10;;;1.00;;
10882;SDS011;5494;51.796;10.952;2023-05-10T15:16:00;1.77;;;0.90;;